sensor_id;sensor_type;location;lat;lon;timestamp;P1;durP1;ratioP1;P2;durP2;ratioP2
12912;SDS011;6524;51.368;11.984;2023-06-19T04:02:21;11.60;;;9.60;;
12912;SDS011;6524;51.368;11.984;2023-06-19T04:07:21;10.57;;;9.57;;
12912;SDS011;6524;51.368;11.984;2023-06-19T04:12:21;10.20;;;9.30;;
12912;SDS011;6524;51.368;11.984;2023-06-19T04:17:22;10.32;;;9.32;;
12912;SDS011;6524;51.368;11.984;2023-06-19T04:22:22;10.95;;;9.95;;
12912;SDS011;6524;51.368;11.984;2023-06-19T04:27:22;15.13;;;11.75;;
12912;SDS011;6524;51.368;11.984;2023-06-19T04:32:23;10.57;;;9.55;;
12912;SDS011;6524;51.368;11.984;2023-06-19T04:37:23;11.10;;;10.07;;
12912;SDS011;6524;51.368;11.984;2023-06-19T04:42:24;10.70;;;9.67;;
12912;SDS011;6524;51.368;11.984;2023-06-19T04:47:24;10.90;;;9.80;;
12912;SDS011;6524;51.368;11.984;2023-06-19T04:52:25;10.57;;;9.57;;
12912;SDS011;6524;51.368;11.984;2023-06-19T04:57:25;12.05;;;10.32;;
12912;SDS011;6524;51.368;11.984;2023-06-19T05:02:26;11.52;;;10.30;;
12912;SDS011;6524;51.368;11.984;2023-06-19T05:07:26;11.45;;;9.80;;
12912;SDS011;6524;51.368;11.984;2023-06-19T05:12:26;10.93;;;9.80;;
12912;SDS011;6524;51.368;11.984;2023-06-19T05:17:27;11.20;;;10.10;;
12912;SDS011;6524;51.368;11.984;2023-06-19T05:22:28;11.95;;;10.50;;
12912;SDS011;6524;51.368;11.984;2023-06-19T05:27:29;11.88;;;10.48;;
12912;SDS011;6524;51.368;11.984;2023-06-19T05:32:29;12.00;;;10.80;;
12912;SDS011;6524;51.368;11.984;2023-06-19T05:37:30;13.55;;;12.10;;
12912;SDS011;6524;51.368;11.984;2023-06-19T05:42:30;13.87;;;12.40;;
12912;SDS011;6524;51.368;11.984;2023-06-19T05:47:31;13.27;;;11.98;;
12912;SDS011;6524;51.368;11.984;2023-06-19T05:52:32;12.88;;;11.65;;
12912;SDS011;6524;51.368;11.984;2023-06-19T05:57:32;13.32;;;11.93;;
12912;SDS011;6524;51.368;11.984;2023-06-19T06:02:33;14.70;;;13.30;;
12912;SDS011;6524;51.368;11.984;2023-06-19T06:07:34;14.35;;;12.88;;
12912;SDS011;6524;51.368;11.984;2023-06-19T06:12:34;13.98;;;12.57;;
12912;SDS011;6524;51.368;11.984;2023-06-19T06:17:35;16.08;;;13.15;;
12912;SDS011;6524;51.368;11.984;2023-06-19T06:22:35;13.82;;;12.43;;
12912;SDS011;6524;51.368;11.984;2023-06-19T06:27:35;15.98;;;14.13;;
12912;SDS011;6524;51.368;11.984;2023-06-19T06:32:36;14.95;;;13.55;;
12912;SDS011;6524;51.368;11.984;2023-06-19T06:37:36;15.13;;;13.63;;
12912;SDS011;6524;51.368;11.984;2023-06-19T06:42:37;18.20;;;14.45;;
12912;SDS011;6524;51.368;11.984;2023-06-19T06:47:38;14.32;;;13.00;;
12912;SDS011;6524;51.368;11.984;2023-06-19T06:52:40;14.80;;;13.30;;
12912;SDS011;6524;51.368;11.984;2023-06-19T06:57:40;14.97;;;13.50;;
12912;SDS011;6524;51.368;11.984;2023-06-19T07:02:40;15.68;;;13.77;;
12912;SDS011;6524;51.368;11.984;2023-06-19T07:07:41;14.73;;;13.30;;
12912;SDS011;6524;51.368;11.984;2023-06-19T07:12:47;13.70;;;12.23;;
12912;SDS011;6524;51.368;11.984;2023-06-19T07:17:48;14.25;;;12.63;;
12912;SDS011;6524;51.368;11.984;2023-06-19T07:22:50;14.23;;;12.63;;
12912;SDS011;6524;51.368;11.984;2023-06-19T07:27:51;14.07;;;12.60;;
12912;SDS011;6524;51.368;11.984;2023-06-19T07:32:51;14.85;;;12.23;;
12912;SDS011;6524;51.368;11.984;2023-06-19T07:37:51;13.25;;;11.95;;
12912;SDS011;6524;51.368;11.984;2023-06-19T07:42:52;13.00;;;11.90;;
12912;SDS011;6524;51.368;11.984;2023-06-19T07:47:55;13.88;;;12.45;;
12912;SDS011;6524;51.368;11.984;2023-06-19T07:52:56;13.45;;;12.10;;
12912;SDS011;6524;51.368;11.984;2023-06-19T07:57:57;15.43;;;12.07;;
12912;SDS011;6524;51.368;11.984;2023-06-19T08:02:57;14.25;;;12.75;;
12912;SDS011;6524;51.368;11.984;2023-06-19T08:08:00;17.97;;;13.80;;
12912;SDS011;6524;51.368;11.984;2023-06-19T08:13:01;16.30;;;13.18;;
12912;SDS011;6524;51.368;11.984;2023-06-19T08:18:02;13.95;;;12.57;;
12912;SDS011;6524;51.368;11.984;2023-06-19T08:23:02;13.75;;;12.35;;
12912;SDS011;6524;51.368;11.984;2023-06-19T08:28:03;14.82;;;13.27;;
12912;SDS011;6524;51.368;11.984;2023-06-19T08:33:04;14.52;;;13.10;;
12912;SDS011;6524;51.368;11.984;2023-06-19T08:38:05;14.75;;;12.77;;
12912;SDS011;6524;51.368;11.984;2023-06-19T08:43:05;15.57;;;14.00;;
12912;SDS011;6524;51.368;11.984;2023-06-19T08:48:05;16.77;;;13.50;;
12912;SDS011;6524;51.368;11.984;2023-06-19T08:53:08;15.50;;;13.90;;
12912;SDS011;6524;51.368;11.984;2023-06-19T08:58:09;14.90;;;13.50;;
12912;SDS011;6524;51.368;11.984;2023-06-19T09:03:10;15.00;;;13.43;;
12912;SDS011;6524;51.368;11.984;2023-06-19T09:08:12;15.30;;;13.60;;
12912;SDS011;6524;51.368;11.984;2023-06-19T09:13:13;14.60;;;13.20;;
12912;SDS011;6524;51.368;11.984;2023-06-19T09:18:16;13.60;;;12.20;;
12912;SDS011;6524;51.368;11.984;2023-06-19T09:23:16;12.50;;;11.38;;
12912;SDS011;6524;51.368;11.984;2023-06-19T09:28:21;14.82;;;13.60;;
12912;SDS011;6524;51.368;11.984;2023-06-19T09:33:30;12.93;;;11.50;;
12912;SDS011;6524;51.368;11.984;2023-06-19T09:38:32;12.32;;;11.13;;
12912;SDS011;6524;51.368;11.984;2023-06-19T09:43:42;11.48;;;10.48;;
12912;SDS011;6524;51.368;11.984;2023-06-19T09:48:44;10.68;;;9.68;;
12912;SDS011;6524;51.368;11.984;2023-06-19T09:53:49;11.32;;;10.40;;
12912;SDS011;6524;51.368;11.984;2023-06-19T09:58:51;11.20;;;10.18;;
12912;SDS011;6524;51.368;11.984;2023-06-19T10:04:06;11.57;;;10.57;;
12912;SDS011;6524;51.368;11.984;2023-06-19T10:09:09;11.82;;;10.82;;
12912;SDS011;6524;51.368;11.984;2023-06-19T10:14:10;11.82;;;10.73;;
12912;SDS011;6524;51.368;11.984;2023-06-19T10:19:14;12.30;;;11.23;;
12912;SDS011;6524;51.368;11.984;2023-06-19T10:24:20;11.95;;;11.00;;
12912;SDS011;6524;51.368;11.984;2023-06-19T10:29:20;11.50;;;10.52;;
12912;SDS011;6524;51.368;11.984;2023-06-19T10:34:22;11.77;;;10.80;;
12912;SDS011;6524;51.368;11.984;2023-06-19T10:39:22;12.82;;;11.70;;
12912;SDS011;6524;51.368;11.984;2023-06-19T10:44:23;11.97;;;10.93;;
12912;SDS011;6524;51.368;11.984;2023-06-19T10:49:25;12.10;;;11.00;;
12912;SDS011;6524;51.368;11.984;2023-06-19T10:54:26;11.57;;;10.68;;
12912;SDS011;6524;51.368;11.984;2023-06-19T10:59:28;11.32;;;10.43;;
12912;SDS011;6524;51.368;11.984;2023-06-19T11:04:28;11.13;;;10.23;;
12912;SDS011;6524;51.368;11.984;2023-06-19T11:09:29;13.03;;;11.93;;
12912;SDS011;6524;51.368;11.984;2023-06-19T11:14:30;11.50;;;10.55;;
12912;SDS011;6524;51.368;11.984;2023-06-19T11:19:31;12.20;;;11.00;;
12912;SDS011;6524;51.368;11.984;2023-06-19T11:24:33;11.60;;;10.70;;
12912;SDS011;6524;51.368;11.984;2023-06-19T11:29:34;11.85;;;10.85;;
12912;SDS011;6524;51.368;11.984;2023-06-19T11:34:35;11.15;;;10.25;;
12912;SDS011;6524;51.368;11.984;2023-06-19T11:39:36;11.20;;;10.27;;
12912;SDS011;6524;51.368;11.984;2023-06-19T11:44:53;11.82;;;10.73;;
12912;SDS011;6524;51.368;11.984;2023-06-19T11:50:00;11.90;;;10.90;;
12912;SDS011;6524;51.368;11.984;2023-06-19T11:55:00;11.88;;;10.93;;
12912;SDS011;6524;51.368;11.984;2023-06-19T12:00:00;11.80;;;10.80;;
12912;SDS011;6524;51.368;11.984;2023-06-19T12:05:01;11.82;;;10.90;;
12912;SDS011;6524;51.368;11.984;2023-06-19T12:10:02;10.75;;;9.85;;
12912;SDS011;6524;51.368;11.984;2023-06-19T12:15:04;11.70;;;10.80;;
12912;SDS011;6524;51.368;11.984;2023-06-19T12:20:05;11.48;;;10.55;;
12912;SDS011;6524;51.368;11.984;2023-06-19T12:25:07;12.07;;;11.07;;
12912;SDS011;6524;51.368;11.984;2023-06-19T12:30:07;11.68;;;10.77;;
12912;SDS011;6524;51.368;11.984;2023-06-19T12:35:09;11.48;;;10.38;;
12912;SDS011;6524;51.368;11.984;2023-06-19T12:40:09;11.00;;;10.10;;
12912;SDS011;6524;51.368;11.984;2023-06-19T12:45:13;9.52;;;8.73;;
12912;SDS011;6524;51.368;11.984;2023-06-19T12:50:14;7.65;;;7.05;;
12912;SDS011;6524;51.368;11.984;2023-06-19T12:55:14;7.60;;;6.95;;
12912;SDS011;6524;51.368;11.984;2023-06-19T13:00:15;8.23;;;7.53;;
12912;SDS011;6524;51.368;11.984;2023-06-19T13:05:20;8.25;;;7.45;;
12912;SDS011;6524;51.368;11.984;2023-06-19T13:10:23;8.23;;;7.63;;
12912;SDS011;6524;51.368;11.984;2023-06-19T13:15:27;9.05;;;8.30;;
12912;SDS011;6524;51.368;11.984;2023-06-19T13:20:28;9.15;;;8.40;;
12912;SDS011;6524;51.368;11.984;2023-06-19T13:25:32;9.10;;;8.40;;
12912;SDS011;6524;51.368;11.984;2023-06-19T13:30:37;9.52;;;8.70;;
12912;SDS011;6524;51.368;11.984;2023-06-19T13:35:41;9.68;;;8.85;;
12912;SDS011;6524;51.368;11.984;2023-06-19T13:40:41;9.40;;;8.63;;
12912;SDS011;6524;51.368;11.984;2023-06-19T13:45:42;8.13;;;7.47;;
12912;SDS011;6524;51.368;11.984;2023-06-19T13:50:42;8.10;;;7.40;;
12912;SDS011;6524;51.368;11.984;2023-06-19T13:55:43;8.23;;;7.53;;
12912;SDS011;6524;51.368;11.984;2023-06-19T14:00:43;6.88;;;6.25;;
12912;SDS011;6524;51.368;11.984;2023-06-19T14:05:44;7.20;;;6.60;;
12912;SDS011;6524;51.368;11.984;2023-06-19T14:10:45;7.32;;;6.63;;
12912;SDS011;6524;51.368;11.984;2023-06-19T14:15:50;6.90;;;6.40;;
12912;SDS011;6524;51.368;11.984;2023-06-19T14:20:57;7.25;;;6.65;;
12912;SDS011;6524;51.368;11.984;2023-06-19T14:25:59;7.50;;;6.80;;
12912;SDS011;6524;51.368;11.984;2023-06-19T14:31:01;7.88;;;7.18;;
12912;SDS011;6524;51.368;11.984;2023-06-19T14:36:01;7.35;;;6.75;;
12912;SDS011;6524;51.368;11.984;2023-06-19T14:41:05;7.30;;;6.60;;
12912;SDS011;6524;51.368;11.984;2023-06-19T14:46:06;7.25;;;6.60;;
12912;SDS011;6524;51.368;11.984;2023-06-19T14:51:07;7.57;;;6.88;;
12912;SDS011;6524;51.368;11.984;2023-06-19T14:56:10;7.75;;;7.05;;
12912;SDS011;6524;51.368;11.984;2023-06-19T15:01:10;7.28;;;6.75;;
12912;SDS011;6524;51.368;11.984;2023-06-19T15:06:11;7.15;;;6.60;;
12912;SDS011;6524;51.368;11.984;2023-06-19T15:11:12;7.80;;;7.18;;
12912;SDS011;6524;51.368;11.984;2023-06-19T15:16:12;7.53;;;7.00;;
12912;SDS011;6524;51.368;11.984;2023-06-19T15:21:14;7.30;;;6.80;;
12912;SDS011;6524;51.368;11.984;2023-06-19T15:26:14;7.72;;;7.13;;
12912;SDS011;6524;51.368;11.984;2023-06-19T15:31:15;8.27;;;7.63;;
12912;SDS011;6524;51.368;11.984;2023-06-19T15:36:16;7.90;;;7.20;;
12912;SDS011;6524;51.368;11.984;2023-06-19T15:41:17;8.43;;;7.65;;
12912;SDS011;6524;51.368;11.984;2023-06-19T15:46:21;7.68;;;6.97;;
12912;SDS011;6524;51.368;11.984;2023-06-19T15:51:23;8.00;;;7.30;;
12912;SDS011;6524;51.368;11.984;2023-06-19T15:56:24;8.13;;;7.50;;
12912;SDS011;6524;51.368;11.984;2023-06-19T16:01:24;7.95;;;7.25;;
12912;SDS011;6524;51.368;11.984;2023-06-19T16:06:26;9.55;;;8.68;;
12912;SDS011;6524;51.368;11.984;2023-06-19T16:11:27;7.65;;;7.05;;
12912;SDS011;6524;51.368;11.984;2023-06-19T16:16:29;8.75;;;7.88;;
12912;SDS011;6524;51.368;11.984;2023-06-19T16:21:30;10.25;;;9.32;;
12912;SDS011;6524;51.368;11.984;2023-06-19T16:26:31;9.07;;;8.20;;
12912;SDS011;6524;51.368;11.984;2023-06-19T16:31:32;8.95;;;8.15;;
12912;SDS011;6524;51.368;11.984;2023-06-19T16:36:33;9.13;;;8.43;;
12912;SDS011;6524;51.368;11.984;2023-06-19T16:41:33;8.20;;;7.45;;
12912;SDS011;6524;51.368;11.984;2023-06-19T16:46:34;7.72;;;7.13;;
12912;SDS011;6524;51.368;11.984;2023-06-19T16:51:35;11.20;;;10.07;;
12912;SDS011;6524;51.368;11.984;2023-06-19T16:56:35;12.90;;;11.65;;
12912;SDS011;6524;51.368;11.984;2023-06-19T17:01:36;13.20;;;11.90;;
12912;SDS011;6524;51.368;11.984;2023-06-19T17:06:39;13.18;;;11.85;;
12912;SDS011;6524;51.368;11.984;2023-06-19T17:11:40;13.15;;;11.75;;
12912;SDS011;6524;51.368;11.984;2023-06-19T17:16:40;12.00;;;10.90;;
12912;SDS011;6524;51.368;11.984;2023-06-19T17:21:42;12.20;;;11.05;;
12912;SDS011;6524;51.368;11.984;2023-06-19T17:26:46;11.20;;;10.07;;
12912;SDS011;6524;51.368;11.984;2023-06-19T17:31:49;10.52;;;9.63;;
12912;SDS011;6524;51.368;11.984;2023-06-19T17:36:49;11.25;;;10.25;;
12912;SDS011;6524;51.368;11.984;2023-06-19T17:41:50;10.55;;;9.65;;
12912;SDS011;6524;51.368;11.984;2023-06-19T17:46:51;11.48;;;10.27;;
12912;SDS011;6524;51.368;11.984;2023-06-19T17:51:52;11.70;;;10.70;;
12912;SDS011;6524;51.368;11.984;2023-06-19T17:56:53;11.02;;;10.07;;
12912;SDS011;6524;51.368;11.984;2023-06-19T18:01:54;11.57;;;10.43;;
12912;SDS011;6524;51.368;11.984;2023-06-19T18:06:54;11.73;;;10.73;;
12912;SDS011;6524;51.368;11.984;2023-06-19T18:11:55;11.43;;;10.32;;
12912;SDS011;6524;51.368;11.984;2023-06-19T18:16:57;12.40;;;11.30;;
12912;SDS011;6524;51.368;11.984;2023-06-19T18:22:01;11.88;;;10.88;;
12912;SDS011;6524;51.368;11.984;2023-06-19T18:27:02;12.77;;;11.55;;
12912;SDS011;6524;51.368;11.984;2023-06-19T18:32:02;11.38;;;10.38;;
12912;SDS011;6524;51.368;11.984;2023-06-19T18:37:03;11.80;;;10.80;;
12912;SDS011;6524;51.368;11.984;2023-06-19T18:42:05;11.60;;;10.60;;
12912;SDS011;6524;51.368;11.984;2023-06-19T18:47:07;11.23;;;10.27;;
12912;SDS011;6524;51.368;11.984;2023-06-19T18:52:08;11.25;;;10.27;;
12912;SDS011;6524;51.368;11.984;2023-06-19T18:57:08;11.32;;;10.32;;
12912;SDS011;6524;51.368;11.984;2023-06-19T19:02:09;11.27;;;10.38;;
12912;SDS011;6524;51.368;11.984;2023-06-19T19:07:11;12.65;;;11.45;;
12912;SDS011;6524;51.368;11.984;2023-06-19T19:12:12;11.60;;;10.70;;
12912;SDS011;6524;51.368;11.984;2023-06-19T19:17:15;12.23;;;11.23;;
12912;SDS011;6524;51.368;11.984;2023-06-19T19:22:15;11.68;;;10.52;;
12912;SDS011;6524;51.368;11.984;2023-06-19T19:27:16;12.98;;;11.75;;
12912;SDS011;6524;51.368;11.984;2023-06-19T19:32:16;13.60;;;12.40;;
12912;SDS011;6524;51.368;11.984;2023-06-19T19:37:23;12.15;;;11.05;;
12912;SDS011;6524;51.368;11.984;2023-06-19T19:42:25;12.45;;;11.35;;
12912;SDS011;6524;51.368;11.984;2023-06-19T19:47:26;12.40;;;11.20;;
12912;SDS011;6524;51.368;11.984;2023-06-19T19:52:28;12.65;;;11.48;;
12912;SDS011;6524;51.368;11.984;2023-06-19T19:57:29;12.68;;;11.48;;
12912;SDS011;6524;51.368;11.984;2023-06-19T20:02:29;12.40;;;11.10;;
12912;SDS011;6524;51.368;11.984;2023-06-19T20:07:32;13.00;;;11.77;;
12912;SDS011;6524;51.368;11.984;2023-06-19T20:12:33;12.65;;;11.55;;
12912;SDS011;6524;51.368;11.984;2023-06-19T20:17:34;12.13;;;11.02;;
12912;SDS011;6524;51.368;11.984;2023-06-19T20:22:35;11.93;;;10.82;;
12912;SDS011;6524;51.368;11.984;2023-06-19T20:27:35;11.38;;;10.27;;
12912;SDS011;6524;51.368;11.984;2023-06-19T20:32:36;13.20;;;12.00;;
12912;SDS011;6524;51.368;11.984;2023-06-19T20:37:36;14.73;;;13.05;;
12912;SDS011;6524;51.368;11.984;2023-06-19T20:42:37;12.43;;;11.30;;
12912;SDS011;6524;51.368;11.984;2023-06-19T20:47:38;12.48;;;11.18;;
12912;SDS011;6524;51.368;11.984;2023-06-19T20:52:38;14.77;;;13.32;;
12912;SDS011;6524;51.368;11.984;2023-06-19T20:57:39;12.25;;;11.05;;
12912;SDS011;6524;51.368;11.984;2023-06-19T21:02:39;12.23;;;10.75;;
12912;SDS011;6524;51.368;11.984;2023-06-19T21:07:40;12.02;;;10.82;;
12912;SDS011;6524;51.368;11.984;2023-06-19T21:12:41;11.00;;;9.88;;
12912;SDS011;6524;51.368;11.984;2023-06-19T21:17:42;11.27;;;10.27;;
12912;SDS011;6524;51.368;11.984;2023-06-19T21:22:43;10.73;;;9.63;;
12912;SDS011;6524;51.368;11.984;2023-06-19T21:27:43;10.50;;;9.40;;
12912;SDS011;6524;51.368;11.984;2023-06-19T21:32:44;10.90;;;9.73;;
12912;SDS011;6524;51.368;11.984;2023-06-19T21:37:44;11.40;;;8.95;;
12912;SDS011;6524;51.368;11.984;2023-06-19T21:42:45;9.97;;;8.77;;
12912;SDS011;6524;51.368;11.984;2023-06-19T21:47:45;9.60;;;8.75;;
12912;SDS011;6524;51.368;11.984;2023-06-19T21:52:46;11.40;;;8.80;;
12912;SDS011;6524;51.368;11.984;2023-06-19T21:57:46;10.10;;;8.98;;
12912;SDS011;6524;51.368;11.984;2023-06-19T22:02:48;10.50;;;7.90;;
12912;SDS011;6524;51.368;11.984;2023-06-19T22:07:49;11.30;;;8.33;;
12912;SDS011;6524;51.368;11.984;2023-06-19T22:12:49;11.13;;;8.65;;
12912;SDS011;6524;51.368;11.984;2023-06-19T22:17:50;11.45;;;8.90;;
12912;SDS011;6524;51.368;11.984;2023-06-19T22:22:50;12.98;;;9.10;;
12912;SDS011;6524;51.368;11.984;2023-06-19T22:27:50;10.30;;;8.85;;
12912;SDS011;6524;51.368;11.984;2023-06-19T22:32:54;12.43;;;10.23;;
12912;SDS011;6524;51.368;11.984;2023-06-19T22:37:55;10.75;;;9.10;;
12912;SDS011;6524;51.368;11.984;2023-06-19T22:42:55;11.03;;;9.57;;
12912;SDS011;6524;51.368;11.984;2023-06-19T22:47:56;10.45;;;9.02;;
12912;SDS011;6524;51.368;11.984;2023-06-19T22:52:56;10.45;;;9.40;;
12912;SDS011;6524;51.368;11.984;2023-06-19T22:57:57;10.20;;;8.48;;
12912;SDS011;6524;51.368;11.984;2023-06-19T23:02:57;14.27;;;8.33;;
12912;SDS011;6524;51.368;11.984;2023-06-19T23:07:57;9.77;;;8.77;;
12912;SDS011;6524;51.368;11.984;2023-06-19T23:12:57;8.90;;;8.13;;
12912;SDS011;6524;51.368;11.984;2023-06-19T23:17:58;10.45;;;8.73;;
12912;SDS011;6524;51.368;11.984;2023-06-19T23:22:58;9.68;;;8.68;;
12912;SDS011;6524;51.368;11.984;2023-06-19T23:27:59;10.20;;;8.73;;
12912;SDS011;6524;51.368;11.984;2023-06-19T23:32:59;11.05;;;8.23;;
12912;SDS011;6524;51.368;11.984;2023-06-19T23:38:00;11.02;;;8.60;;
12912;SDS011;6524;51.368;11.984;2023-06-19T23:43:00;9.50;;;8.52;;
12912;SDS011;6524;51.368;11.984;2023-06-19T23:48:02;11.65;;;9.13;;
12912;SDS011;6524;51.368;11.984;2023-06-19T23:53:02;9.63;;;8.63;;
12912;SDS011;6524;51.368;11.984;2023-06-19T23:58:03;11.30;;;9.18;;
